createdAt,value
2019-05-09T00:00:06.243Z,76.52
2019-05-09T00:02:37.643Z,76.37
2019-05-09T00:05:04.537Z,75.89
2019-05-09T00:07:31.046Z,76.65
2019-05-09T00:09:57.512Z,76.25
2019-05-09T00:12:24.011Z,76.51
2019-05-09T00:14:50.476Z,76.59
2019-05-09T00:17:16.991Z,76.18
2019-05-09T00:19:43.971Z,76.50
2019-05-09T00:22:10.761Z,76.11
2019-05-09T00:24:37.527Z,76.08
2019-05-09T00:27:04.073Z,75.18
2019-05-09T00:29:35.978Z,75.73
2019-05-09T00:32:15.818Z,75.77
2019-05-09T00:34:49.096Z,76.48
2019-05-09T00:37:15.587Z,76.53
2019-05-09T00:39:43.415Z,76.59
2019-05-09T00:42:09.980Z,77.06
2019-05-09T00:44:38.380Z,77.04
2019-05-09T00:47:20.533Z,77.70
2019-05-09T00:49:47.143Z,78.22
2019-05-09T00:52:14.239Z,78.41
2019-05-09T00:54:40.744Z,78.22
2019-05-09T00:57:07.196Z,78.39
2019-05-09T00:59:33.701Z,78.34
2019-05-09T01:02:00.204Z,78.74
2019-05-09T01:04:27.731Z,79.28
2019-05-09T01:06:54.332Z,78.67
2019-05-09T01:09:24.016Z,79.35
2019-05-09T01:11:50.544Z,78.96
2019-05-09T01:14:17.116Z,78.45
2019-05-09T01:16:44.632Z,78.04
2019-05-09T01:19:11.167Z,77.53
2019-05-09T01:21:37.628Z,77.68
2019-05-09T01:24:05.228Z,77.93
2019-05-09T01:26:33.377Z,78.43
2019-05-09T01:29:00.124Z,78.02
2019-05-09T01:31:26.699Z,77.90
2019-05-09T01:34:18.596Z,77.88
2019-05-09T01:37:04.111Z,77.06
2019-05-09T01:39:30.912Z,76.90
2019-05-09T01:41:57.482Z,76.97
2019-05-09T01:44:24.413Z,77.32
2019-05-09T01:46:51.150Z,77.29
2019-05-09T01:49:17.603Z,76.67
2019-05-09T01:51:44.529Z,76.33
2019-05-09T01:54:13.236Z,76.82
2019-05-09T01:56:39.617Z,76.32
2019-05-09T01:59:06.101Z,76.11
2019-05-09T02:01:34.432Z,76.24
2019-05-09T02:04:01.038Z,76.56
2019-05-09T02:06:27.997Z,76.69
2019-05-09T02:08:54.808Z,77.33
2019-05-09T02:11:23.627Z,77.57
2019-05-09T02:13:50.097Z,77.72
2019-05-09T02:16:38.849Z,77.90
2019-05-09T02:19:30.650Z,78.34
2019-05-09T02:21:57.120Z,78.44
2019-05-09T02:24:23.734Z,78.47
2019-05-09T02:26:50.445Z,78.90
2019-05-09T02:29:16.922Z,79.17
2019-05-09T02:31:44.569Z,79.55
2019-05-09T02:34:14.700Z,79.90
2019-05-09T02:36:39.798Z,80.27
2019-05-09T02:39:08.991Z,80.63
2019-05-09T02:41:34.884Z,81.17
2019-05-09T02:44:01.340Z,81.49
2019-05-09T02:46:43.553Z,81.44
2019-05-09T02:49:10.040Z,81.16
2019-05-09T02:51:38.710Z,81.31
2019-05-09T02:54:05.350Z,81.40
2019-05-09T02:56:31.812Z,81.05
2019-05-09T02:59:04.867Z,80.44
2019-05-09T03:01:39.241Z,80.32
2019-05-09T03:04:08.451Z,80.08
2019-05-09T03:06:34.405Z,80.69
2019-05-09T03:09:01.618Z,80.96
2019-05-09T03:11:29.119Z,80.67
2019-05-09T03:13:58.501Z,80.59
2019-05-09T03:16:24.513Z,80.76
2019-05-09T03:18:51.035Z,80.64
2019-05-09T03:21:29.453Z,80.93
2019-05-09T03:23:54.489Z,80.98
2019-05-09T03:26:29.086Z,81.17
2019-05-09T03:29:19.766Z,81.32
2019-05-09T03:31:50.068Z,81.72
2019-05-09T03:34:15.168Z,82.32
2019-05-09T03:36:41.841Z,82.35
2019-05-09T03:39:08.593Z,82.51
2019-05-09T03:41:35.471Z,82.62
2019-05-09T03:44:02.061Z,82.67
2019-05-09T03:46:39.301Z,82.92
2019-05-09T03:49:07.538Z,83.30
2019-05-09T03:51:34.238Z,83.24
2019-05-09T03:54:03.344Z,83.33
2019-05-09T03:56:34.841Z,83.26
2019-05-09T03:59:01.358Z,82.90
2019-05-09T04:01:28.243Z,82.62
2019-05-09T04:03:54.814Z,82.52
2019-05-09T04:06:21.337Z,82.10
2019-05-09T04:08:54.023Z,81.87
2019-05-09T04:11:32.618Z,81.17
2019-05-09T04:14:23.306Z,81.25
2019-05-09T04:16:49.949Z,80.83
2019-05-09T04:19:17.941Z,81.05
2019-05-09T04:21:54.704Z,80.92
2019-05-09T04:24:22.283Z,81.17
2019-05-09T04:27:12.727Z,81.76
2019-05-09T04:29:39.237Z,82.01
2019-05-09T04:32:11.227Z,81.81
2019-05-09T04:34:38.568Z,81.46
2019-05-09T04:37:05.390Z,81.07
2019-05-09T04:39:32.075Z,81.18
2019-05-09T04:42:05.343Z,80.81
2019-05-09T04:44:37.369Z,80.31
2019-05-09T04:47:05.031Z,80.30
2019-05-09T04:49:39.267Z,80.28
2019-05-09T04:52:01.148Z,80.25
2019-05-09T04:54:38.527Z,80.00
2019-05-09T04:57:07.508Z,80.09
2019-05-09T04:59:33.529Z,79.64
2019-05-09T05:02:27.625Z,78.33
2019-05-09T05:05:03.696Z,77.39
2019-05-09T05:07:30.277Z,76.34
2019-05-09T05:09:57.591Z,76.14
2019-05-09T05:12:24.206Z,75.80
2019-05-09T05:14:59.280Z,74.88
2019-05-09T05:17:30.372Z,73.95
2019-05-09T05:19:55.378Z,73.17
2019-05-09T05:22:28.465Z,72.59
2019-05-09T05:25:02.388Z,71.27
2019-05-09T05:27:28.953Z,70.97
2019-05-09T05:29:58.103Z,71.25
2019-05-09T05:32:49.685Z,70.17
2019-05-09T05:35:25.244Z,70.37
2019-05-09T05:37:54.250Z,70.60
2019-05-09T05:40:20.947Z,70.54
2019-05-09T05:42:59.664Z,69.97
2019-05-09T05:45:28.534Z,69.60
2019-05-09T05:48:07.822Z,69.49
2019-05-09T05:50:34.569Z,70.01
2019-05-09T05:53:01.121Z,70.38
2019-05-09T05:55:27.696Z,70.57
2019-05-09T05:57:54.165Z,70.74
2019-05-09T06:00:22.560Z,69.94
2019-05-09T06:02:49.066Z,68.75
2019-05-09T06:05:18.682Z,68.68
2019-05-09T06:07:45.376Z,67.59
2019-05-09T06:10:14.464Z,66.34
2019-05-09T06:12:43.797Z,66.16
2019-05-09T06:15:10.447Z,66.29
2019-05-09T06:17:38.056Z,64.65
2019-05-09T06:20:04.819Z,64.65
2019-05-09T06:22:31.248Z,62.96
2019-05-09T06:25:00.942Z,63.62
2019-05-09T06:27:28.787Z,64.00
2019-05-09T06:29:58.062Z,63.92
2019-05-09T06:32:24.328Z,64.04
2019-05-09T06:34:53.108Z,64.24
2019-05-09T06:37:27.506Z,61.87
2019-05-09T06:39:58.090Z,62.27
2019-05-09T06:42:25.451Z,62.72
2019-05-09T06:45:07.747Z,62.81
2019-05-09T06:47:38.138Z,61.40
2019-05-09T06:50:07.954Z,59.66
2019-05-09T06:52:34.754Z,59.24
2019-05-09T06:55:04.700Z,58.14
2019-05-09T06:57:31.449Z,56.15
2019-05-09T06:59:58.301Z,54.88
2019-05-09T07:02:39.454Z,54.66
2019-05-09T07:05:14.331Z,54.84
2019-05-09T07:07:53.471Z,54.62
2019-05-09T07:10:22.487Z,51.31
2019-05-09T07:12:49.010Z,51.37
2019-05-09T07:15:18.278Z,50.63
2019-05-09T07:17:45.365Z,50.41
2019-05-09T07:20:12.176Z,53.66
2019-05-09T07:22:48.243Z,54.26
2019-05-09T07:25:47.866Z,53.81
2019-05-09T07:28:17.958Z,52.16
2019-05-09T07:30:57.993Z,51.11
2019-05-09T07:33:43.644Z,50.75
2019-05-09T07:36:10.459Z,49.61
2019-05-09T07:38:38.481Z,48.16
2019-05-09T07:41:05.512Z,47.02
2019-05-09T07:43:32.061Z,47.78
2019-05-09T07:46:30.560Z,46.76
2019-05-09T07:48:58.095Z,46.28
2019-05-09T07:51:24.562Z,46.68
2019-05-09T07:53:51.230Z,46.00
2019-05-09T07:56:18.832Z,46.31
2019-05-09T07:58:47.628Z,47.18
2019-05-09T08:01:14.240Z,46.25
2019-05-09T08:03:40.941Z,47.60
2019-05-09T08:06:10.616Z,49.41
2019-05-09T08:08:40.926Z,48.58
2019-05-09T08:11:08.851Z,48.01
2019-05-09T08:13:35.740Z,46.58
2019-05-09T08:16:02.423Z,46.82
2019-05-09T08:18:28.999Z,45.77
2019-05-09T08:21:00.721Z,46.04
2019-05-09T08:23:27.568Z,46.27
2019-05-09T08:25:54.229Z,46.03
2019-05-09T08:28:20.904Z,46.34
2019-05-09T08:30:48.526Z,45.72
2019-05-09T08:33:18.415Z,47.77
2019-05-09T08:35:49.832Z,46.63
2019-05-09T08:38:13.292Z,47.65
2019-05-09T08:40:40.432Z,46.10
2019-05-09T08:43:07.652Z,46.99
2019-05-09T08:45:34.323Z,45.92
2019-05-09T08:48:00.953Z,47.22
2019-05-09T08:50:32.618Z,46.79
2019-05-09T08:52:59.210Z,46.29
2019-05-09T08:55:27.831Z,47.77
2019-05-09T08:57:55.651Z,48.63
2019-05-09T09:00:22.568Z,47.49
2019-05-09T09:02:49.132Z,45.87
2019-05-09T09:05:18.706Z,44.57
2019-05-09T09:07:48.264Z,44.78
2019-05-09T09:10:18.695Z,45.78
2019-05-09T09:12:47.683Z,45.38
2019-05-09T09:15:13.804Z,44.73
2019-05-09T09:17:40.921Z,45.88
2019-05-09T09:20:08.357Z,46.69
2019-05-09T09:22:37.384Z,44.90
2019-05-09T09:25:04.801Z,46.77
2019-05-09T09:27:32.103Z,46.32
2019-05-09T09:30:15.245Z,49.07
2019-05-09T09:32:28.135Z,46.34
2019-05-09T09:34:54.939Z,45.47
2019-05-09T09:37:21.642Z,44.88
2019-05-09T09:39:50.678Z,43.03
2019-05-09T09:42:19.991Z,42.48
2019-05-09T09:44:48.935Z,43.30
2019-05-09T09:47:23.453Z,45.78
2019-05-09T09:49:55.114Z,44.72
2019-05-09T09:52:24.681Z,43.67
2019-05-09T09:54:51.571Z,42.97
2019-05-09T09:57:19.073Z,42.25
2019-05-09T10:00:07.548Z,41.64
2019-05-09T10:02:37.871Z,43.01
2019-05-09T10:05:07.573Z,42.75
2019-05-09T10:07:33.612Z,45.69
2019-05-09T10:10:02.664Z,43.48
2019-05-09T10:12:29.290Z,41.10
2019-05-09T10:15:05.075Z,40.84
2019-05-09T10:17:58.314Z,42.31
2019-05-09T10:20:44.758Z,44.52
2019-05-09T10:23:18.172Z,42.90
2019-05-09T10:25:41.159Z,43.00
2019-05-09T10:28:08.692Z,45.00
2019-05-09T10:30:38.006Z,43.95
2019-05-09T10:33:04.023Z,42.91
2019-05-09T10:35:30.833Z,37.85
2019-05-09T10:37:59.032Z,36.93
2019-05-09T10:40:28.150Z,38.40
2019-05-09T10:43:02.825Z,39.95
2019-05-09T10:45:40.749Z,40.43
2019-05-09T10:48:05.497Z,42.11
2019-05-09T10:50:34.330Z,42.50
2019-05-09T10:53:01.390Z,42.58
2019-05-09T10:55:28.416Z,40.75
2019-05-09T10:57:55.067Z,42.29
2019-05-09T11:00:39.257Z,40.79
2019-05-09T11:03:01.348Z,40.78
2019-05-09T11:05:27.899Z,38.21
2019-05-09T11:07:54.517Z,39.93
2019-05-09T11:10:28.400Z,39.97
2019-05-09T11:12:58.840Z,39.99
2019-05-09T11:15:25.419Z,41.39
2019-05-09T11:17:52.318Z,43.10
2019-05-09T11:20:21.285Z,43.28
2019-05-09T11:22:47.839Z,44.56
2019-05-09T11:25:14.733Z,43.85
2019-05-09T11:27:42.402Z,43.65
2019-05-09T11:30:09.355Z,40.96
2019-05-09T11:32:38.441Z,41.48
2019-05-09T11:35:05.146Z,39.25
2019-05-09T11:37:32.227Z,39.72
2019-05-09T11:39:59.021Z,38.92
2019-05-09T11:42:25.903Z,37.90
2019-05-09T11:44:53.688Z,38.94
2019-05-09T11:47:32.029Z,37.64
2019-05-09T11:49:49.116Z,37.91
2019-05-09T11:52:18.184Z,37.89
2019-05-09T11:55:02.498Z,37.33
2019-05-09T11:57:31.507Z,40.15
2019-05-09T11:59:58.318Z,37.29
2019-05-09T12:02:27.809Z,37.00
2019-05-09T12:04:54.037Z,38.65
2019-05-09T12:07:21.963Z,40.60
2019-05-09T12:09:51.372Z,42.48
2019-05-09T12:12:19.740Z,41.38
2019-05-09T12:14:49.811Z,42.94
2019-05-09T12:17:20.024Z,43.76
2019-05-09T12:19:49.390Z,43.38
2019-05-09T12:22:19.050Z,42.24
2019-05-09T12:24:48.268Z,42.66
2019-05-09T12:27:18.880Z,43.53
2019-05-09T12:29:48.370Z,46.78
2019-05-09T12:32:18.730Z,47.79
2019-05-09T12:34:48.190Z,48.75
2019-05-09T12:37:20.029Z,47.54
2019-05-09T12:39:48.089Z,45.62
2019-05-09T12:42:15.221Z,45.23
2019-05-09T12:44:43.609Z,45.00
2019-05-09T12:47:10.102Z,44.64
2019-05-09T12:49:39.237Z,43.87
2019-05-09T12:52:08.034Z,43.13
2019-05-09T12:54:35.515Z,41.40
2019-05-09T12:57:01.981Z,40.97
2019-05-09T12:59:44.513Z,40.36
2019-05-09T13:02:01.765Z,41.47
2019-05-09T13:04:28.364Z,40.31
2019-05-09T13:06:55.291Z,40.00
2019-05-09T13:09:22.059Z,39.68
2019-05-09T13:11:48.514Z,41.36
2019-05-09T13:14:15.034Z,43.74
2019-05-09T13:17:13.672Z,43.07
2019-05-09T13:19:47.798Z,44.45
2019-05-09T13:22:13.896Z,44.12
2019-05-09T13:24:40.512Z,44.27
2019-05-09T13:27:07.916Z,40.92
2019-05-09T13:29:34.650Z,41.07
2019-05-09T13:32:03.455Z,41.04
2019-05-09T13:34:30.494Z,40.50
2019-05-09T13:36:59.012Z,38.63
2019-05-09T13:39:27.810Z,39.34
2019-05-09T13:41:58.309Z,40.42
2019-05-09T13:44:24.687Z,41.72
2019-05-09T13:46:51.951Z,44.63
2019-05-09T13:49:19.423Z,43.24
2019-05-09T13:51:54.815Z,43.72
2019-05-09T13:54:14.586Z,44.39
2019-05-09T13:56:41.239Z,43.66
2019-05-09T13:59:08.478Z,44.13
2019-05-09T14:01:37.776Z,45.78
2019-05-09T14:04:04.808Z,47.84
2019-05-09T14:06:32.461Z,50.66
2019-05-09T14:09:04.651Z,51.50
2019-05-09T14:11:31.182Z,53.84
2019-05-09T14:13:58.231Z,55.67
2019-05-09T14:16:25.117Z,55.27
2019-05-09T14:18:55.411Z,57.64
2019-05-09T14:21:24.511Z,61.33
2019-05-09T14:24:03.065Z,66.28
2019-05-09T14:26:24.160Z,67.94
2019-05-09T14:28:50.705Z,70.20
2019-05-09T14:31:18.647Z,73.90
2019-05-09T14:33:47.636Z,74.65
2019-05-09T14:36:14.276Z,73.82
2019-05-09T14:38:41.390Z,75.19
2019-05-09T14:41:13.522Z,76.78
2019-05-09T14:43:44.998Z,75.46
2019-05-09T14:46:11.674Z,74.15
2019-05-09T14:48:38.538Z,74.43
2019-05-09T14:51:07.651Z,73.81
2019-05-09T14:53:34.427Z,73.42
2019-05-09T14:56:03.235Z,72.93
2019-05-09T14:58:29.800Z,71.28
2019-05-09T15:01:00.682Z,70.01
2019-05-09T15:03:27.649Z,70.12
2019-05-09T15:05:53.609Z,66.86
2019-05-09T15:08:20.438Z,64.30
2019-05-09T15:10:46.925Z,65.93
2019-05-09T15:13:14.541Z,64.18
2019-05-09T15:15:41.127Z,60.30
2019-05-09T15:18:08.204Z,63.32
2019-05-09T15:20:37.949Z,60.00
2019-05-09T15:23:04.379Z,62.36
2019-05-09T15:25:30.950Z,61.50
2019-05-09T15:27:58.073Z,61.14
2019-05-09T15:30:24.679Z,62.01
2019-05-09T15:33:08.356Z,60.74
2019-05-09T15:35:54.654Z,61.08
2019-05-09T15:38:22.505Z,61.34
2019-05-09T15:40:49.294Z,60.86
2019-05-09T15:43:18.585Z,62.58
2019-05-09T15:45:51.341Z,62.66
2019-05-09T15:48:18.180Z,60.79
2019-05-09T15:50:45.018Z,60.17
2019-05-09T15:53:11.992Z,60.45
2019-05-09T15:55:38.582Z,57.97
2019-05-09T15:58:15.111Z,58.37
2019-05-09T16:01:03.660Z,57.14
2019-05-09T16:03:30.158Z,58.17
2019-05-09T16:05:58.412Z,57.65
2019-05-09T16:08:25.429Z,58.26
2019-05-09T16:10:52.023Z,58.89
2019-05-09T16:13:18.592Z,59.46
2019-05-09T16:15:45.345Z,59.60
2019-05-09T16:18:12.221Z,58.93
2019-05-09T16:20:41.287Z,60.62
2019-05-09T16:23:09.920Z,60.14
2019-05-09T16:25:38.676Z,60.45
2019-05-09T16:28:07.828Z,58.26
2019-05-09T16:30:33.767Z,58.63
2019-05-09T16:33:00.355Z,59.14
2019-05-09T16:35:28.637Z,59.24
2019-05-09T16:38:10.837Z,59.61
2019-05-09T16:41:08.777Z,59.12
2019-05-09T16:43:35.509Z,58.89
2019-05-09T16:46:02.379Z,58.52
2019-05-09T16:48:29.232Z,59.47
2019-05-09T16:51:03.119Z,59.65
2019-05-09T16:53:24.314Z,59.03
2019-05-09T16:55:50.848Z,59.40
2019-05-09T16:58:18.691Z,60.00
2019-05-09T17:00:50.615Z,60.59
2019-05-09T17:03:17.932Z,61.38
2019-05-09T17:05:44.466Z,61.74
2019-05-09T17:08:11.453Z,61.54
2019-05-09T17:10:39.078Z,62.38
2019-05-09T17:13:19.296Z,62.99
2019-05-09T17:15:48.372Z,63.45
2019-05-09T17:18:15.110Z,65.47
2019-05-09T17:21:17.794Z,65.95
2019-05-09T17:23:34.847Z,66.00
2019-05-09T17:26:01.438Z,66.70
2019-05-09T17:28:28.554Z,67.43
2019-05-09T17:30:57.807Z,67.80
2019-05-09T17:33:24.049Z,68.22
2019-05-09T17:35:50.862Z,67.70
2019-05-09T17:38:18.171Z,67.95
2019-05-09T17:40:44.689Z,67.72
2019-05-09T17:43:14.447Z,68.17
2019-05-09T17:45:42.389Z,68.59
2019-05-09T17:48:08.977Z,69.53
2019-05-09T17:50:38.669Z,70.08
2019-05-09T17:53:08.614Z,70.81
2019-05-09T17:55:38.411Z,71.52
2019-05-09T17:58:08.480Z,72.23
2019-05-09T18:00:35.191Z,73.44
2019-05-09T18:03:02.097Z,74.72
2019-05-09T18:05:28.669Z,76.09
2019-05-09T18:08:18.550Z,76.79
2019-05-09T18:10:44.710Z,77.96
2019-05-09T18:13:23.782Z,79.02
2019-05-09T18:15:48.555Z,80.39
2019-05-09T18:18:15.104Z,81.30
2019-05-09T18:20:42.124Z,82.31
2019-05-09T18:23:09.067Z,82.41
2019-05-09T18:25:37.952Z,83.82
2019-05-09T18:28:04.909Z,83.50
2019-05-09T18:30:31.522Z,84.33
2019-05-09T18:33:11.622Z,83.83
2019-05-09T18:35:39.983Z,83.84
2019-05-09T18:38:07.912Z,83.83
2019-05-09T18:40:34.637Z,83.73
2019-05-09T18:43:01.284Z,84.52
2019-05-09T18:45:31.869Z,84.77
2019-05-09T18:47:58.698Z,84.57
2019-05-09T18:50:25.641Z,85.36
2019-05-09T18:52:52.874Z,86.17
2019-05-09T18:55:20.103Z,86.44
2019-05-09T18:57:46.658Z,86.35
2019-05-09T19:00:15.669Z,86.12
2019-05-09T19:02:44.277Z,85.78
2019-05-09T19:05:13.156Z,85.89
2019-05-09T19:07:40.211Z,85.68
2019-05-09T19:10:07.162Z,85.91
2019-05-09T19:12:33.752Z,86.06
2019-05-09T19:15:00.992Z,86.40
2019-05-09T19:17:53.087Z,86.33
2019-05-09T19:20:33.848Z,86.54
2019-05-09T19:23:00.679Z,86.49
2019-05-09T19:25:27.208Z,86.68
2019-05-09T19:27:53.698Z,86.80
2019-05-09T19:30:20.906Z,87.04
2019-05-09T19:32:47.560Z,87.21
2019-05-09T19:35:14.189Z,87.40
2019-05-09T19:37:40.649Z,87.11
2019-05-09T19:40:07.203Z,86.87
2019-05-09T19:42:33.760Z,86.60
2019-05-09T19:45:00.302Z,86.25
2019-05-09T19:47:27.124Z,86.51
2019-05-09T19:49:53.817Z,86.53
2019-05-09T19:52:20.400Z,86.31
2019-05-09T19:54:46.897Z,86.58
2019-05-09T19:57:13.636Z,86.32
2019-05-09T19:59:40.351Z,86.32
2019-05-09T20:02:07.163Z,86.06
2019-05-09T20:04:34.804Z,86.11
2019-05-09T20:07:01.346Z,86.75
2019-05-09T20:09:38.541Z,86.73
2019-05-09T20:12:23.666Z,86.79
2019-05-09T20:14:51.368Z,85.69
2019-05-09T20:17:17.935Z,85.41
2019-05-09T20:19:44.538Z,85.26
2019-05-09T20:22:11.192Z,84.91
2019-05-09T20:24:37.852Z,84.00
2019-05-09T20:27:04.706Z,84.07
2019-05-09T20:29:31.783Z,83.55
2019-05-09T20:31:58.456Z,83.16
2019-05-09T20:34:25.190Z,83.07
2019-05-09T20:36:52.093Z,82.38
2019-05-09T20:39:24.575Z,82.22
2019-05-09T20:41:51.323Z,82.24
2019-05-09T20:44:18.219Z,82.12
2019-05-09T20:46:44.844Z,81.96
2019-05-09T20:49:11.384Z,81.89
2019-05-09T20:51:38.006Z,81.73
2019-05-09T20:54:20.048Z,81.89
2019-05-09T20:56:34.271Z,81.62
2019-05-09T20:59:01.480Z,81.74
2019-05-09T21:01:31.167Z,81.73
2019-05-09T21:04:01.522Z,82.05
2019-05-09T21:06:28.618Z,82.29
2019-05-09T21:09:00.260Z,82.29
2019-05-09T21:11:29.729Z,82.59
2019-05-09T21:13:58.381Z,83.02
2019-05-09T21:16:25.556Z,83.08
2019-05-09T21:18:52.133Z,83.46
2019-05-09T21:21:19.918Z,83.33
2019-05-09T21:23:48.627Z,83.46
2019-05-09T21:26:15.156Z,83.77
2019-05-09T21:28:41.842Z,83.45
2019-05-09T21:31:08.581Z,83.51
2019-05-09T21:33:38.245Z,84.00
2019-05-09T21:36:04.989Z,83.67
2019-05-09T21:38:31.516Z,83.78
2019-05-09T21:40:58.304Z,84.30
2019-05-09T21:43:24.996Z,84.64
2019-05-09T21:45:51.489Z,84.99
2019-05-09T21:48:18.419Z,85.79
2019-05-09T21:50:45.054Z,86.28
2019-05-09T21:53:11.583Z,86.53
2019-05-09T21:55:38.379Z,87.08
2019-05-09T21:58:05.948Z,87.14
2019-05-09T22:00:40.253Z,87.56
2019-05-09T22:03:06.998Z,87.05
2019-05-09T22:05:34.114Z,88.10
2019-05-09T22:08:00.859Z,88.03
2019-05-09T22:10:28.020Z,88.00
2019-05-09T22:12:54.961Z,88.17
2019-05-09T22:15:21.596Z,88.93
2019-05-09T22:17:48.472Z,88.42
2019-05-09T22:20:15.216Z,89.30
2019-05-09T22:22:42.050Z,88.59
2019-05-09T22:25:08.964Z,88.67
2019-05-09T22:27:35.836Z,88.69
2019-05-09T22:30:05.237Z,87.81
2019-05-09T22:32:31.720Z,87.90
2019-05-09T22:34:58.282Z,87.99
2019-05-09T22:37:24.979Z,88.01
2019-05-09T22:39:52.045Z,88.83
2019-05-09T22:42:18.800Z,88.39
2019-05-09T22:44:45.709Z,87.88
2019-05-09T22:47:12.209Z,87.77
2019-05-09T22:49:38.704Z,87.96
2019-05-09T22:52:05.404Z,88.32
2019-05-09T22:54:32.174Z,87.90
2019-05-09T22:56:59.108Z,88.18
2019-05-09T22:59:25.811Z,87.12
2019-05-09T23:01:52.361Z,86.75
2019-05-09T23:04:18.891Z,86.03
2019-05-09T23:06:45.655Z,85.50
2019-05-09T23:09:12.158Z,85.68
2019-05-09T23:11:38.713Z,85.87
2019-05-09T23:14:05.278Z,84.72
2019-05-09T23:16:35.458Z,84.47
2019-05-09T23:19:02.077Z,84.43
2019-05-09T23:21:29.299Z,84.42
2019-05-09T23:23:59.092Z,84.00
2019-05-09T23:26:25.800Z,83.68
2019-05-09T23:28:52.344Z,83.70
2019-05-09T23:31:26.228Z,83.44
2019-05-09T23:33:52.723Z,83.40
2019-05-09T23:36:19.434Z,83.56
2019-05-09T23:39:04.131Z,83.62
2019-05-09T23:41:31.134Z,83.59
2019-05-09T23:43:57.640Z,83.93
2019-05-09T23:46:24.828Z,84.12
2019-05-09T23:48:51.444Z,84.21
2019-05-09T23:51:18.043Z,84.61
2019-05-09T23:53:52.007Z,84.65
2019-05-09T23:56:37.819Z,84.68
2019-05-09T23:59:22.538Z,85.08
